createdAt,value
2019-05-12T00:02:00.923Z,35.87
2019-05-12T00:04:31.327Z,37.70
2019-05-12T00:07:01.783Z,39.13
2019-05-12T00:09:32.226Z,34.53
2019-05-12T00:12:02.815Z,38.10
2019-05-12T00:14:33.237Z,41.73
2019-05-12T00:17:03.685Z,37.43
2019-05-12T00:19:34.085Z,39.47
2019-05-12T00:22:04.568Z,36.13
2019-05-12T00:24:34.973Z,38.27
2019-05-12T00:27:12.987Z,35.93
2019-05-12T00:29:43.418Z,44.73
2019-05-12T00:32:13.881Z,41.80
2019-05-12T00:34:44.330Z,45.23
2019-05-12T00:37:14.790Z,44.13
2019-05-12T00:39:47.710Z,39.10
2019-05-12T00:42:18.357Z,42.13
2019-05-12T00:44:49.801Z,42.27
2019-05-12T00:47:21.252Z,46.97
2019-05-12T00:49:54.138Z,42.93
2019-05-12T00:52:28.195Z,43.17
2019-05-12T00:54:59.703Z,46.23
2019-05-12T00:57:31.461Z,41.77
2019-05-12T01:00:05.777Z,47.30
2019-05-12T01:02:38.971Z,49.67
2019-05-12T01:05:13.285Z,53.77
2019-05-12T01:07:48.194Z,50.73
2019-05-12T01:10:20.082Z,53.63
2019-05-12T01:12:51.840Z,62.37
2019-05-12T01:15:23.390Z,64.23
2019-05-12T01:17:58.570Z,67.87
2019-05-12T01:20:29.878Z,63.97
2019-05-12T01:23:11.365Z,78.57
2019-05-12T01:25:43.224Z,96.73
2019-05-12T01:28:15.187Z,70.10
2019-05-12T01:30:48.276Z,69.67
2019-05-12T01:33:22.595Z,128.37
2019-05-12T01:35:54.864Z,89.60
2019-05-12T01:38:28.771Z,66.23
2019-05-12T01:41:17.974Z,66.50
2019-05-12T01:44:05.772Z,61.10
2019-05-12T01:46:53.303Z,122.90
2019-05-12T01:49:41.547Z,64.90
2019-05-12T01:52:29.794Z,68.20
2019-05-12T01:55:18.597Z,66.00
2019-05-12T01:58:08.354Z,70.33
2019-05-12T02:00:59.004Z,69.47
2019-05-12T02:03:48.299Z,71.57
2019-05-12T02:06:30.298Z,69.87
2019-05-12T02:09:14.445Z,73.23
2019-05-12T02:11:58.394Z,77.10
2019-05-12T02:14:31.380Z,113.27
2019-05-12T02:17:02.930Z,81.73
2019-05-12T02:19:34.793Z,78.77
2019-05-12T02:22:09.723Z,75.97
2019-05-12T02:24:41.276Z,68.47
2019-05-12T02:27:13.238Z,68.10
2019-05-12T02:29:45.305Z,71.17
2019-05-12T02:32:17.274Z,58.53
2019-05-12T02:34:48.926Z,53.63
2019-05-12T02:37:21.092Z,50.97
2019-05-12T02:39:55.554Z,63.23
2019-05-12T02:42:26.247Z,65.43
2019-05-12T02:44:59.233Z,69.80
2019-05-12T02:47:34.422Z,79.13
2019-05-12T02:50:09.199Z,69.70
2019-05-12T02:52:44.333Z,99.50
2019-05-12T02:55:16.505Z,116.10
2019-05-12T02:57:50.717Z,59.37
2019-05-12T03:00:24.224Z,268.23
2019-05-12T03:02:59.666Z,293.43
2019-05-12T03:05:34.878Z,259.83
2019-05-12T03:08:05.751Z,72.03
2019-05-12T03:10:37.500Z,76.47
2019-05-12T03:13:09.255Z,89.47
2019-05-12T03:15:41.020Z,233.97
2019-05-12T03:18:14.650Z,92.43
2019-05-12T03:20:46.169Z,87.10
2019-05-12T03:23:19.088Z,77.30
2019-05-12T03:25:54.442Z,81.53
2019-05-12T03:28:26.153Z,94.63
2019-05-12T03:31:23.550Z,78.97
2019-05-12T03:33:59.872Z,69.40
2019-05-12T03:36:34.541Z,73.47
2019-05-12T03:39:04.235Z,79.20
2019-05-12T03:41:37.918Z,89.33
2019-05-12T03:44:09.981Z,89.13
2019-05-12T03:46:45.628Z,112.90
2019-05-12T03:49:17.078Z,104.17
2019-05-12T03:51:48.941Z,73.20
2019-05-12T03:54:24.348Z,73.50
2019-05-12T03:56:58.804Z,77.97
2019-05-12T03:59:30.361Z,72.63
2019-05-12T04:02:04.693Z,70.23
2019-05-12T04:04:36.950Z,67.43
2019-05-12T04:07:08.707Z,76.13
2019-05-12T04:09:40.177Z,85.23
2019-05-12T04:12:14.840Z,80.67
2019-05-12T04:14:45.723Z,83.90
2019-05-12T04:17:28.640Z,81.80
2019-05-12T04:20:45.272Z,82.33
2019-05-12T04:23:27.556Z,84.07
2019-05-12T04:26:10.968Z,85.90
2019-05-12T04:28:39.980Z,94.33
2019-05-12T04:31:15.837Z,94.43
2019-05-12T04:33:59.616Z,82.73
2019-05-12T04:37:17.517Z,67.37
2019-05-12T04:40:14.919Z,65.43
2019-05-12T04:42:44.849Z,72.60
2019-05-12T04:45:16.025Z,68.50
2019-05-12T04:47:48.109Z,67.63
2019-05-12T04:50:38.087Z,58.60
2019-05-12T04:53:09.851Z,51.50
2019-05-12T04:55:44.611Z,46.47
2019-05-12T04:58:17.152Z,46.43
2019-05-12T05:00:48.802Z,43.47
2019-05-12T05:03:20.767Z,42.97
2019-05-12T05:05:54.951Z,48.50
2019-05-12T05:08:26.405Z,43.23
2019-05-12T05:10:58.189Z,42.10
2019-05-12T05:13:48.174Z,44.00
2019-05-12T05:18:59.165Z,41.33
2019-05-12T05:21:30.923Z,43.20
2019-05-12T05:24:04.221Z,49.63
2019-05-12T05:26:38.253Z,39.70
2019-05-12T05:29:13.374Z,37.00
2019-05-12T05:31:44.815Z,37.53
2019-05-12T05:37:20.283Z,29.07
2019-05-12T05:39:49.535Z,41.33
2019-05-12T05:42:22.187Z,33.30
2019-05-12T05:45:10.012Z,34.18
2019-05-12T05:47:41.135Z,25.57
2019-05-12T05:50:24.912Z,26.95
2019-05-12T05:52:58.170Z,25.80
2019-05-12T05:55:35.958Z,22.85
2019-05-12T05:58:10.707Z,24.72
2019-05-12T06:00:43.624Z,26.80
2019-05-12T06:03:23.313Z,26.48
2019-05-12T06:05:53.511Z,26.48
2019-05-12T06:08:27.866Z,20.60
2019-05-12T06:10:59.219Z,25.52
2019-05-12T06:13:32.381Z,25.15
2019-05-12T06:16:05.191Z,24.77
2019-05-12T06:18:37.255Z,21.57
2019-05-12T06:21:09.015Z,24.70
2019-05-12T06:23:43.488Z,24.12
2019-05-12T06:26:20.955Z,26.70
2019-05-12T06:28:50.639Z,22.90
2019-05-12T06:31:25.209Z,22.32
2019-05-12T06:34:13.700Z,22.37
2019-05-12T06:36:39.942Z,26.15
2019-05-12T06:39:23.434Z,21.77
2019-05-12T06:42:02.010Z,22.35
2019-05-12T06:44:43.709Z,20.70
2019-05-12T06:47:21.073Z,21.27
2019-05-12T06:49:57.141Z,19.27
2019-05-12T06:52:29.711Z,18.07
2019-05-12T06:55:03.774Z,16.87
2019-05-12T06:57:40.142Z,18.55
2019-05-12T07:00:22.324Z,16.90
2019-05-12T07:03:04.245Z,14.25
2019-05-12T07:09:03.452Z,14.43
2019-05-12T07:18:23.250Z,14.25
2019-05-12T07:27:16.235Z,14.18
2019-05-12T07:27:36.789Z,15.85
2019-05-12T08:00:25.180Z,17.80
2019-05-12T08:15:53.273Z,15.65
2019-05-12T08:18:37.045Z,14.35
2019-05-12T08:21:49.409Z,11.28
2019-05-12T08:27:45.271Z,16.37
2019-05-12T08:30:57.012Z,15.43
2019-05-12T08:33:34.540Z,13.03
2019-05-12T08:36:52.903Z,13.70
2019-05-12T08:42:26.373Z,14.20
2019-05-12T08:44:58.745Z,12.55
2019-05-12T08:47:38.983Z,13.40
2019-05-12T09:03:06.039Z,12.90
2019-05-12T09:09:16.138Z,15.80
2019-05-12T09:11:47.180Z,12.93
2019-05-12T09:14:17.631Z,15.68
2019-05-12T09:16:48.064Z,15.45
2019-05-12T09:19:23.935Z,12.28
2019-05-12T09:21:50.637Z,12.25
2019-05-12T09:24:25.326Z,13.60
2019-05-12T09:26:53.838Z,14.25
2019-05-12T09:29:25.256Z,12.25
2019-05-12T09:31:59.354Z,14.60
2019-05-12T09:34:29.331Z,13.62
2019-05-12T09:37:01.129Z,11.55
2019-05-12T09:51:46.051Z,15.15
2019-05-12T09:54:16.641Z,14.95
2019-05-12T09:56:49.881Z,12.28
2019-05-12T09:59:23.017Z,10.32
2019-05-12T10:01:51.386Z,13.28
2019-05-12T10:04:22.646Z,10.40
2019-05-12T10:06:53.547Z,10.70
2019-05-12T10:09:24.470Z,9.60
2019-05-12T10:12:00.547Z,8.80
2019-05-12T10:14:27.224Z,8.78
2019-05-12T10:16:57.696Z,13.48
2019-05-12T10:19:28.124Z,8.53
2019-05-12T10:21:59.669Z,9.85
2019-05-12T10:24:34.425Z,7.95
2019-05-12T10:27:03.791Z,7.90
2019-05-12T10:29:34.376Z,6.95
2019-05-12T10:32:04.850Z,7.50
2019-05-12T10:34:40.131Z,6.90
2019-05-12T10:37:07.465Z,7.03
2019-05-12T10:39:37.892Z,7.95
2019-05-12T10:42:08.352Z,8.35
2019-05-12T10:44:40.782Z,8.78
2019-05-12T10:47:10.897Z,7.70
2019-05-12T10:49:41.291Z,7.10
2019-05-12T10:52:13.804Z,6.03
2019-05-12T10:54:43.879Z,8.15
2019-05-12T10:57:14.335Z,8.80
2019-05-12T10:59:48.458Z,5.75
2019-05-12T11:02:20.389Z,5.60
2019-05-12T11:04:49.372Z,6.40
2019-05-12T11:07:22.865Z,6.72
2019-05-12T11:09:54.214Z,9.45
2019-05-12T11:12:28.919Z,11.70
2019-05-12T11:14:56.248Z,10.90
2019-05-12T11:17:29.981Z,8.10
2019-05-12T11:20:00.592Z,7.58
2019-05-12T11:22:33.268Z,8.28
2019-05-12T11:25:04.355Z,8.05
2019-05-12T11:27:34.893Z,10.60
2019-05-12T11:30:06.922Z,11.22
2019-05-12T11:32:38.019Z,9.28
2019-05-12T11:35:08.900Z,9.43
2019-05-12T11:37:39.358Z,11.97
2019-05-12T11:40:09.857Z,11.08
2019-05-12T11:42:40.321Z,10.80
2019-05-12T11:45:10.927Z,9.43
2019-05-12T11:47:41.360Z,8.70
2019-05-12T11:50:13.244Z,7.85
2019-05-12T11:52:45.942Z,8.60
2019-05-12T11:55:15.910Z,7.83
2019-05-12T11:57:46.388Z,7.67
2019-05-12T12:00:18.825Z,8.80
2019-05-12T12:02:49.338Z,10.40
2019-05-12T12:05:20.662Z,10.50
2019-05-12T12:07:52.914Z,10.75
2019-05-12T12:10:23.482Z,7.70
2019-05-12T12:12:54.060Z,6.78
2019-05-12T12:15:26.438Z,7.83
2019-05-12T12:17:56.729Z,8.95
2019-05-12T12:20:27.210Z,8.83
2019-05-12T12:23:00.169Z,9.18
2019-05-12T12:25:33.876Z,12.10
2019-05-12T12:28:04.358Z,8.50
2019-05-12T12:30:35.066Z,8.23
2019-05-12T12:33:05.573Z,8.43
2019-05-12T12:35:35.978Z,7.83
2019-05-12T12:38:06.503Z,9.70
2019-05-12T12:40:36.916Z,11.35
2019-05-12T12:43:08.248Z,8.75
2019-05-12T12:45:40.781Z,8.63
2019-05-12T12:48:13.567Z,8.75
2019-05-12T12:50:44.550Z,8.08
2019-05-12T12:53:15.092Z,8.40
2019-05-12T12:55:46.987Z,8.18
2019-05-12T12:58:21.133Z,9.70
2019-05-12T13:00:54.515Z,8.15
2019-05-12T13:03:27.708Z,9.85
2019-05-12T13:05:54.531Z,11.12
2019-05-12T13:08:25.005Z,12.80
2019-05-12T13:10:55.414Z,10.72
2019-05-12T13:13:25.961Z,12.85
2019-05-12T13:15:56.393Z,11.65
2019-05-12T13:18:33.024Z,16.50
2019-05-12T13:20:59.001Z,15.90
2019-05-12T13:23:37.986Z,17.87
2019-05-12T13:26:04.126Z,19.20
2019-05-12T13:28:34.237Z,17.00
2019-05-12T13:31:09.020Z,18.75
2019-05-12T13:33:36.977Z,16.02
2019-05-12T13:36:07.392Z,15.53
2019-05-12T13:38:40.384Z,10.50
2019-05-12T13:41:17.949Z,10.00
2019-05-12T13:43:42.136Z,10.88
2019-05-12T13:46:12.541Z,9.83
2019-05-12T13:48:43.401Z,8.63
2019-05-12T13:51:15.786Z,9.60
2019-05-12T13:53:50.122Z,8.18
2019-05-12T13:56:19.227Z,9.30
2019-05-12T13:58:50.290Z,9.50
2019-05-12T14:01:21.043Z,10.48
2019-05-12T14:03:53.604Z,10.85
2019-05-12T14:06:31.861Z,12.80
2019-05-12T14:08:56.781Z,17.10
2019-05-12T14:11:27.230Z,13.53
2019-05-12T14:13:57.761Z,11.88
2019-05-12T14:16:28.186Z,10.88
2019-05-12T14:19:00.430Z,14.10
2019-05-12T14:21:33.151Z,13.48
2019-05-12T14:24:03.132Z,15.25
2019-05-12T14:26:33.551Z,14.65
2019-05-12T14:29:04.086Z,15.63
2019-05-12T14:31:36.269Z,15.60
2019-05-12T14:34:10.543Z,21.20
2019-05-12T14:36:38.847Z,14.43
2019-05-12T14:39:10.397Z,15.55
2019-05-12T14:41:44.394Z,18.48
2019-05-12T14:44:13.739Z,25.88
2019-05-12T14:46:49.251Z,17.07
2019-05-12T14:49:20.413Z,15.65
2019-05-12T14:51:48.607Z,16.05
2019-05-12T14:54:19.082Z,18.23
2019-05-12T14:56:55.443Z,22.07
2019-05-12T14:59:23.767Z,21.77
2019-05-12T15:01:59.137Z,22.55
2019-05-12T15:04:29.869Z,20.08
2019-05-12T15:06:59.750Z,16.90
2019-05-12T15:09:31.200Z,14.53
2019-05-12T15:12:03.607Z,10.30
2019-05-12T15:14:38.004Z,12.93
2019-05-12T15:17:05.909Z,12.00
2019-05-12T15:19:36.288Z,15.63
2019-05-12T15:22:10.281Z,18.98
2019-05-12T15:24:38.866Z,9.75
2019-05-12T15:27:09.256Z,9.93
2019-05-12T15:29:39.690Z,9.78
2019-05-12T15:32:10.175Z,11.78
2019-05-12T15:34:40.629Z,15.65
2019-05-12T15:37:11.035Z,27.17
2019-05-12T15:39:43.899Z,23.67
2019-05-12T15:42:14.234Z,27.32
2019-05-12T15:44:47.317Z,22.42
2019-05-12T15:47:16.935Z,22.50
2019-05-12T15:49:47.382Z,20.45
2019-05-12T15:52:17.788Z,20.72
2019-05-12T15:54:51.314Z,17.55
2019-05-12T15:57:20.343Z,21.27
2019-05-12T15:59:50.759Z,16.37
2019-05-12T16:02:23.374Z,16.93
2019-05-12T16:04:55.018Z,16.55
2019-05-12T16:07:29.705Z,27.07
2019-05-12T16:09:58.501Z,19.50
2019-05-12T16:12:28.925Z,19.35
2019-05-12T16:14:59.477Z,20.43
2019-05-12T16:17:30.013Z,18.40
2019-05-12T16:20:00.484Z,16.57
2019-05-12T16:22:37.293Z,15.35
2019-05-12T16:25:07.448Z,15.58
2019-05-12T16:27:37.854Z,16.10
2019-05-12T16:30:08.645Z,15.28
2019-05-12T16:32:43.062Z,14.40
2019-05-12T16:35:11.516Z,14.98
2019-05-12T16:37:44.174Z,16.77
2019-05-12T16:40:14.757Z,18.15
2019-05-12T16:42:53.537Z,17.00
2019-05-12T16:45:19.979Z,17.35
2019-05-12T16:47:49.517Z,17.07
2019-05-12T16:50:27.653Z,16.70
2019-05-12T16:52:53.552Z,17.12
2019-05-12T16:55:24.266Z,20.00
2019-05-12T16:57:56.149Z,16.42
2019-05-12T17:00:26.795Z,20.80
2019-05-12T17:02:58.039Z,20.10
2019-05-12T17:05:28.655Z,23.27
2019-05-12T17:07:59.933Z,22.58
2019-05-12T17:10:30.421Z,24.80
2019-05-12T17:13:00.843Z,20.05
2019-05-12T17:15:33.700Z,22.02
2019-05-12T17:18:04.326Z,20.77
2019-05-12T17:20:35.046Z,19.15
2019-05-12T17:23:05.473Z,20.70
2019-05-12T17:25:35.935Z,30.00
2019-05-12T17:28:06.369Z,20.40
2019-05-12T17:30:36.849Z,25.62
2019-05-12T17:33:07.276Z,24.00
2019-05-12T17:35:37.763Z,27.82
2019-05-12T17:38:11.710Z,27.52
2019-05-12T17:40:40.338Z,27.02
2019-05-12T17:43:12.030Z,25.15
2019-05-12T17:45:44.292Z,31.05
2019-05-12T17:48:14.707Z,26.48
2019-05-12T17:50:48.561Z,32.42
2019-05-12T17:53:17.843Z,32.08
2019-05-12T17:55:53.174Z,30.17
2019-05-12T17:58:20.535Z,31.82
2019-05-12T18:00:52.003Z,32.45
2019-05-12T18:03:25.492Z,33.25
2019-05-12T18:05:54.696Z,34.55
2019-05-12T18:08:32.448Z,32.33
2019-05-12T18:10:58.161Z,34.53
2019-05-12T18:13:28.562Z,35.65
2019-05-12T18:15:59.137Z,31.62
2019-05-12T18:18:32.735Z,33.25
2019-05-12T18:21:03.573Z,34.50
2019-05-12T18:23:34.525Z,33.73
2019-05-12T18:26:11.441Z,33.20
2019-05-12T18:28:37.119Z,43.33
2019-05-12T18:31:07.597Z,39.23
2019-05-12T18:33:50.879Z,41.50
2019-05-12T18:36:10.203Z,41.95
2019-05-12T18:38:40.634Z,38.55
2019-05-12T18:41:11.114Z,36.08
2019-05-12T18:43:43.493Z,42.65
2019-05-12T18:46:14.174Z,46.75
2019-05-12T18:48:44.669Z,43.87
2019-05-12T18:51:17.372Z,47.88
2019-05-12T18:53:47.251Z,45.90
2019-05-12T18:56:21.830Z,52.83
2019-05-12T18:58:49.872Z,44.53
2019-05-12T19:01:20.342Z,45.60
2019-05-12T19:03:51.307Z,51.45
2019-05-12T19:06:23.412Z,49.42
2019-05-12T19:08:54.831Z,47.67
2019-05-12T19:11:31.726Z,48.52
2019-05-12T19:13:57.610Z,55.17
2019-05-12T19:16:28.236Z,58.17
2019-05-12T19:18:58.673Z,66.10
2019-05-12T19:21:29.125Z,58.15
2019-05-12T19:23:59.569Z,57.55
2019-05-12T19:26:32.891Z,65.35
2019-05-12T19:29:04.019Z,65.80
2019-05-12T19:31:36.656Z,59.45
2019-05-12T19:34:18.031Z,59.38
2019-05-12T19:36:44.852Z,63.33
2019-05-12T19:39:10.885Z,69.10
2019-05-12T19:41:43.461Z,64.40
2019-05-12T19:44:13.650Z,70.15
2019-05-12T19:46:45.925Z,65.12
2019-05-12T19:49:20.205Z,66.67
2019-05-12T19:51:48.376Z,66.28
2019-05-12T19:54:19.335Z,76.57
2019-05-12T19:56:50.951Z,75.97
2019-05-12T19:59:23.501Z,73.28
2019-05-12T20:01:53.745Z,77.78
2019-05-12T20:04:33.517Z,74.07
2019-05-12T20:06:56.387Z,71.67
2019-05-12T20:09:27.655Z,87.23
2019-05-12T20:12:01.255Z,81.73
2019-05-12T20:14:30.283Z,76.53
2019-05-12T20:17:00.823Z,78.37
2019-05-12T20:19:31.238Z,73.97
2019-05-12T20:22:03.505Z,69.20
2019-05-12T20:24:33.736Z,75.57
2019-05-12T20:27:04.218Z,69.12
2019-05-12T20:29:35.321Z,72.45
2019-05-12T20:32:05.883Z,72.63
2019-05-12T20:34:48.402Z,69.37
2019-05-12T20:37:13.444Z,81.15
2019-05-12T20:39:40.583Z,77.90
2019-05-12T20:42:11.072Z,80.05
2019-05-12T20:44:43.594Z,73.20
2019-05-12T20:47:14.054Z,69.45
2019-05-12T20:49:50.932Z,68.00
2019-05-12T20:52:16.606Z,69.70
2019-05-12T20:54:49.113Z,66.70
2019-05-12T20:57:19.143Z,70.55
2019-05-12T20:59:49.591Z,65.97
2019-05-12T21:02:20.056Z,61.37
2019-05-12T21:05:00.611Z,57.05
2019-05-12T21:07:26.812Z,52.55
2019-05-12T21:09:55.635Z,56.75
2019-05-12T21:12:26.119Z,49.83
2019-05-12T21:15:12.320Z,54.30
2019-05-12T21:17:39.394Z,48.68
2019-05-12T21:20:00.919Z,44.53
2019-05-12T21:22:31.384Z,52.20
2019-05-12T21:25:03.974Z,52.60
2019-05-12T21:27:33.976Z,55.80
2019-05-12T21:30:10.357Z,52.50
2019-05-12T21:32:38.232Z,51.58
2019-05-12T21:35:19.375Z,49.08
2019-05-12T21:37:45.572Z,47.80
2019-05-12T21:40:14.887Z,51.55
2019-05-12T21:42:45.559Z,52.20
2019-05-12T21:45:20.170Z,54.58
2019-05-12T21:47:48.226Z,48.05
2019-05-12T21:50:24.276Z,49.03
2019-05-12T21:52:56.405Z,55.83
2019-05-12T21:55:26.050Z,51.70
2019-05-12T21:57:54.928Z,50.98
2019-05-12T22:00:34.706Z,53.65
2019-05-12T22:03:08.097Z,51.00
2019-05-12T22:05:50.355Z,48.42
2019-05-12T22:08:17.661Z,52.88
2019-05-12T22:10:44.766Z,48.65
2019-05-12T22:13:18.175Z,51.63
2019-05-12T22:15:51.546Z,52.70
2019-05-12T22:18:19.654Z,47.17
2019-05-12T22:20:54.418Z,48.63
2019-05-12T22:23:24.587Z,51.33
2019-05-12T22:25:58.056Z,50.87
2019-05-12T22:28:26.657Z,52.53
2019-05-12T22:30:57.053Z,48.77
2019-05-12T22:33:27.512Z,49.40
2019-05-12T22:36:04.844Z,48.97
2019-05-12T22:38:30.089Z,53.37
2019-05-12T22:41:00.524Z,49.37
2019-05-12T22:43:31.506Z,50.30
2019-05-12T22:46:04.540Z,54.57
2019-05-12T22:48:37.339Z,50.60
2019-05-12T22:51:17.491Z,49.50
2019-05-12T22:53:39.523Z,52.50
2019-05-12T22:56:17.818Z,55.13
2019-05-12T22:58:44.169Z,48.20
2019-05-12T23:01:14.590Z,45.80
2019-05-12T23:03:51.240Z,52.30
2019-05-12T23:06:23.527Z,48.90
2019-05-12T23:08:49.567Z,56.93
2019-05-12T23:11:23.795Z,46.63
2019-05-12T23:13:53.827Z,48.23
2019-05-12T23:16:27.664Z,44.20
2019-05-12T23:19:01.327Z,48.33
2019-05-12T23:21:28.777Z,46.63
2019-05-12T23:24:00.761Z,50.83
2019-05-12T23:26:35.650Z,46.27
2019-05-12T23:29:04.261Z,45.63
2019-05-12T23:31:34.821Z,44.07
2019-05-12T23:34:06.412Z,41.70
2019-05-12T23:36:39.182Z,46.17
2019-05-12T23:39:09.789Z,44.33
2019-05-12T23:41:40.257Z,43.37
2019-05-12T23:44:10.701Z,44.10
2019-05-12T23:46:43.568Z,47.00
2019-05-12T23:49:14.388Z,45.13
2019-05-12T23:51:44.871Z,45.10
2019-05-12T23:54:15.357Z,49.27
2019-05-12T23:56:45.788Z,45.13
2019-05-12T23:59:16.227Z,45.03
